createdAt,value
2018-05-14T00:01:54.534Z,71.80
2018-05-14T00:04:22.840Z,70.90
2018-05-14T00:06:50.360Z,70.80
2018-05-14T00:09:17.975Z,71.20
2018-05-14T00:11:45.519Z,71.70
2018-05-14T00:14:13.798Z,71.30
2018-05-14T00:16:42.146Z,71.40
2018-05-14T00:19:09.678Z,71.30
2018-05-14T00:21:37.187Z,71.30
2018-05-14T00:24:04.816Z,71.20
2018-05-14T00:26:32.345Z,71.30
2018-05-14T00:28:59.860Z,71.30
2018-05-14T00:31:27.494Z,71.40
2018-05-14T00:33:55.022Z,70.80
2018-05-14T00:36:23.305Z,72.00
2018-05-14T00:38:51.603Z,72.40
2018-05-14T00:41:19.193Z,72.30
2018-05-14T00:43:46.717Z,72.10
2018-05-14T00:46:15.030Z,72.60
2018-05-14T00:48:43.298Z,72.50
2018-05-14T00:51:10.878Z,72.10
2018-05-14T00:53:38.423Z,71.80
2018-05-14T00:56:06.696Z,70.40
2018-05-14T00:58:35.125Z,69.70
2018-05-14T01:01:02.649Z,69.60
2018-05-14T01:03:31.051Z,68.70
2018-05-14T01:05:58.573Z,68.60
2018-05-14T01:08:26.886Z,68.30
2018-05-14T01:10:54.402Z,68.30
2018-05-14T01:13:21.929Z,67.90
2018-05-14T01:15:49.465Z,67.40
2018-05-14T01:18:17.875Z,67.00
2018-05-14T01:20:45.398Z,66.90
2018-05-14T01:23:13.710Z,67.10
2018-05-14T01:25:41.237Z,66.60
2018-05-14T01:28:10.274Z,66.50
2018-05-14T01:30:37.822Z,66.50
2018-05-14T01:33:06.302Z,66.80
2018-05-14T01:35:34.582Z,66.50
2018-05-14T01:38:02.902Z,67.00
2018-05-14T01:40:30.462Z,67.00
2018-05-14T01:42:57.973Z,66.60
2018-05-14T01:45:25.506Z,66.80
2018-05-14T01:47:53.057Z,66.40
2018-05-14T01:50:20.569Z,66.80
2018-05-14T01:52:48.269Z,66.80
2018-05-14T01:55:15.791Z,67.20
2018-05-14T01:57:43.296Z,67.20
2018-05-14T02:00:11.797Z,67.20
2018-05-14T02:02:39.304Z,67.20
2018-05-14T02:05:06.819Z,67.60
2018-05-14T02:07:34.349Z,67.70
2018-05-14T02:10:02.625Z,67.50
2018-05-14T02:12:30.141Z,67.40
2018-05-14T02:14:57.942Z,67.90
2018-05-14T02:17:25.460Z,67.40
2018-05-14T02:19:52.986Z,67.10
2018-05-14T02:22:22.050Z,66.90
2018-05-14T02:24:49.567Z,66.80
2018-05-14T02:27:18.789Z,67.50
2018-05-14T02:29:46.362Z,67.50
2018-05-14T02:32:13.886Z,66.90
2018-05-14T02:34:42.302Z,66.30
2018-05-14T02:37:09.841Z,66.60
2018-05-14T02:39:37.362Z,67.30
2018-05-14T02:42:05.005Z,67.00
2018-05-14T02:44:32.880Z,66.60
2018-05-14T02:47:00.434Z,66.60
2018-05-14T02:49:28.316Z,66.20
2018-05-14T02:51:55.862Z,66.60
2018-05-14T02:54:23.392Z,66.60
2018-05-14T02:56:50.910Z,66.50
2018-05-14T02:59:18.468Z,66.20
2018-05-14T03:01:46.001Z,66.20
2018-05-14T03:04:14.281Z,66.10
2018-05-14T03:06:42.578Z,65.80
2018-05-14T03:09:10.160Z,65.80
2018-05-14T03:11:37.674Z,65.60
2018-05-14T03:14:05.222Z,66.00
2018-05-14T03:16:32.758Z,65.70
2018-05-14T03:19:00.265Z,65.30
2018-05-14T03:21:29.305Z,65.30
2018-05-14T03:23:56.820Z,65.20
2018-05-14T03:26:24.321Z,65.50
2018-05-14T03:28:52.625Z,65.10
2018-05-14T03:31:20.129Z,65.10
2018-05-14T03:33:47.638Z,65.10
2018-05-14T03:36:16.018Z,65.10
2018-05-14T03:38:44.293Z,64.90
2018-05-14T03:41:12.754Z,64.40
2018-05-14T03:43:40.365Z,64.30
2018-05-14T03:46:07.878Z,64.50
2018-05-14T03:48:35.395Z,64.40
2018-05-14T03:51:02.961Z,64.60
2018-05-14T03:53:30.568Z,64.30
2018-05-14T03:55:58.077Z,64.30
2018-05-14T03:58:38.225Z,64.20
2018-05-14T04:01:14.351Z,64.10
2018-05-14T04:03:54.623Z,63.90
2018-05-14T04:06:43.692Z,64.30
2018-05-14T04:09:12.064Z,63.80
2018-05-14T04:11:40.532Z,63.80
2018-05-14T04:14:08.052Z,64.20
2018-05-14T04:16:35.788Z,63.90
2018-05-14T04:19:03.325Z,64.30
2018-05-14T04:21:30.851Z,64.20
2018-05-14T04:23:58.407Z,63.50
2018-05-14T04:26:26.616Z,63.90
2018-05-14T04:28:54.257Z,64.30
2018-05-14T04:31:21.804Z,64.50
2018-05-14T04:33:50.103Z,64.10
2018-05-14T04:36:18.591Z,64.00
2018-05-14T04:38:46.137Z,64.70
2018-05-14T04:41:14.704Z,63.80
2018-05-14T04:43:43.029Z,64.00
2018-05-14T04:46:10.864Z,63.80
2018-05-14T04:48:38.412Z,63.90
2018-05-14T04:51:05.933Z,63.80
2018-05-14T04:53:33.475Z,64.20
2018-05-14T04:56:00.986Z,64.50
2018-05-14T04:58:28.594Z,64.50
2018-05-14T05:00:56.901Z,64.80
2018-05-14T05:03:24.408Z,64.80
2018-05-14T05:05:51.918Z,64.00
2018-05-14T05:08:19.483Z,63.70
2018-05-14T05:10:47.004Z,63.50
2018-05-14T05:13:14.522Z,62.60
2018-05-14T05:15:42.183Z,62.90
2018-05-14T05:18:09.711Z,61.80
2018-05-14T05:20:37.219Z,61.20
2018-05-14T05:23:04.745Z,60.90
2018-05-14T05:25:33.118Z,60.30
2018-05-14T05:28:00.662Z,60.30
2018-05-14T05:30:29.231Z,60.40
2018-05-14T05:32:56.755Z,60.10
2018-05-14T05:35:25.060Z,58.90
2018-05-14T05:37:55.075Z,58.20
2018-05-14T05:40:22.586Z,58.70
2018-05-14T05:42:50.098Z,59.60
2018-05-14T05:45:17.652Z,58.70
2018-05-14T05:47:45.185Z,58.40
2018-05-14T05:50:13.519Z,58.30
2018-05-14T05:52:41.054Z,58.40
2018-05-14T05:55:09.341Z,57.90
2018-05-14T05:57:37.627Z,59.30
2018-05-14T06:00:06.064Z,59.30
2018-05-14T06:02:33.757Z,59.10
2018-05-14T06:05:02.101Z,56.90
2018-05-14T06:07:29.645Z,57.30
2018-05-14T06:09:57.153Z,57.20
2018-05-14T06:12:24.663Z,56.60
2018-05-14T06:14:52.193Z,56.10
2018-05-14T06:17:20.477Z,56.20
2018-05-14T06:19:48.781Z,55.70
2018-05-14T06:22:16.346Z,56.10
2018-05-14T06:24:44.607Z,56.40
2018-05-14T06:27:12.883Z,56.20
2018-05-14T06:29:41.201Z,56.60
2018-05-14T06:32:08.719Z,56.50
2018-05-14T06:34:36.240Z,55.40
2018-05-14T06:37:03.937Z,56.00
2018-05-14T06:39:31.637Z,55.90
2018-05-14T06:41:59.950Z,56.40
2018-05-14T06:44:27.522Z,56.30
2018-05-14T06:46:55.042Z,56.70
2018-05-14T06:49:23.317Z,56.70
2018-05-14T06:51:50.878Z,56.60
2018-05-14T06:54:19.191Z,55.60
2018-05-14T06:56:46.768Z,55.30
2018-05-14T06:59:14.307Z,54.90
2018-05-14T07:01:42.837Z,54.60
2018-05-14T07:04:10.379Z,54.50
2018-05-14T07:06:37.922Z,54.70
2018-05-14T07:09:06.195Z,53.80
2018-05-14T07:11:33.754Z,53.70
2018-05-14T07:14:01.262Z,54.60
2018-05-14T07:16:28.774Z,53.40
2018-05-14T07:18:56.279Z,53.30
2018-05-14T07:21:23.862Z,53.10
2018-05-14T07:23:51.385Z,53.50
2018-05-14T07:26:19.669Z,53.00
2018-05-14T07:28:47.213Z,53.00
2018-05-14T07:31:16.226Z,52.40
2018-05-14T07:33:43.822Z,52.40
2018-05-14T07:36:11.459Z,52.70
2018-05-14T07:38:38.939Z,52.40
2018-05-14T07:41:06.512Z,52.30
2018-05-14T07:43:34.046Z,53.00
2018-05-14T07:46:02.397Z,53.40
2018-05-14T07:48:30.023Z,53.30
2018-05-14T07:50:57.464Z,53.50
2018-05-14T07:53:25.754Z,54.60
2018-05-14T07:55:53.269Z,54.50
2018-05-14T07:58:20.879Z,54.40
2018-05-14T08:00:49.201Z,55.20
2018-05-14T08:03:16.749Z,55.20
2018-05-14T08:05:44.371Z,54.60
2018-05-14T08:08:11.833Z,54.50
2018-05-14T08:10:39.346Z,54.20
2018-05-14T08:13:06.894Z,54.30
2018-05-14T08:15:34.431Z,53.90
2018-05-14T08:18:02.706Z,50.70
2018-05-14T08:20:30.269Z,50.70
2018-05-14T08:22:58.597Z,47.10
2018-05-14T08:25:26.101Z,47.00
2018-05-14T08:27:53.650Z,46.30
2018-05-14T08:30:21.158Z,46.10
2018-05-14T08:32:49.434Z,47.00
2018-05-14T08:35:17.169Z,46.40
2018-05-14T08:37:44.743Z,45.10
2018-05-14T08:40:12.273Z,45.00
2018-05-14T08:42:40.726Z,41.00
2018-05-14T08:45:09.021Z,39.80
2018-05-14T08:47:37.305Z,42.10
2018-05-14T08:50:04.883Z,42.00
2018-05-14T08:52:32.448Z,42.60
2018-05-14T08:54:59.963Z,42.80
2018-05-14T08:57:29.037Z,40.30
2018-05-14T08:59:56.564Z,40.30
2018-05-14T09:02:24.093Z,39.00
2018-05-14T09:04:51.715Z,38.30
2018-05-14T09:07:19.238Z,36.70
2018-05-14T09:09:47.513Z,38.00
2018-05-14T09:12:15.822Z,39.20
2018-05-14T09:14:43.326Z,39.10
2018-05-14T09:17:10.839Z,39.70
2018-05-14T09:19:39.319Z,40.40
2018-05-14T09:22:06.693Z,40.40
2018-05-14T09:24:34.210Z,38.70
2018-05-14T09:27:01.737Z,37.00
2018-05-14T09:29:29.243Z,36.80
2018-05-14T09:31:56.748Z,34.80
2018-05-14T09:34:24.280Z,33.90
2018-05-14T09:36:53.298Z,31.80
2018-05-14T09:39:21.573Z,30.20
2018-05-14T09:41:49.873Z,30.70
2018-05-14T09:44:17.497Z,30.70
2018-05-14T09:46:45.019Z,31.50
2018-05-14T09:49:12.553Z,33.80
2018-05-14T09:51:40.826Z,35.00
2018-05-14T09:54:09.102Z,35.20
2018-05-14T09:56:37.406Z,36.10
2018-05-14T09:59:05.681Z,33.90
2018-05-14T10:01:33.979Z,34.10
2018-05-14T10:04:01.520Z,34.00
2018-05-14T10:06:30.418Z,34.00
2018-05-14T10:08:58.697Z,33.50
2018-05-14T10:11:26.998Z,34.80
2018-05-14T10:13:54.542Z,34.70
2018-05-14T10:16:22.816Z,37.50
2018-05-14T10:18:51.195Z,40.00
2018-05-14T10:21:18.651Z,39.20
2018-05-14T10:23:46.166Z,41.20
2018-05-14T10:26:13.699Z,41.70
2018-05-14T10:28:42.002Z,41.40
2018-05-14T10:31:09.519Z,41.40
2018-05-14T10:33:37.057Z,41.40
2018-05-14T10:36:04.603Z,40.30
2018-05-14T10:38:32.121Z,40.60
2018-05-14T10:40:59.681Z,40.70
2018-05-14T10:43:27.187Z,42.30
2018-05-14T10:45:55.629Z,40.80
2018-05-14T10:48:23.162Z,37.10
2018-05-14T10:50:50.670Z,35.80
2018-05-14T10:53:18.941Z,36.50
2018-05-14T10:55:46.481Z,36.50
2018-05-14T10:58:13.989Z,37.20
2018-05-14T11:00:42.287Z,41.60
2018-05-14T11:03:09.841Z,41.50
2018-05-14T11:05:38.118Z,39.90
2018-05-14T11:08:06.395Z,39.90
2018-05-14T11:10:34.757Z,38.80
2018-05-14T11:13:02.264Z,38.80
2018-05-14T11:15:29.795Z,39.40
2018-05-14T11:17:57.345Z,38.30
2018-05-14T11:20:24.862Z,39.30
2018-05-14T11:22:52.369Z,39.10
2018-05-14T11:25:19.896Z,41.10
2018-05-14T11:27:47.486Z,41.90
2018-05-14T11:30:15.750Z,43.60
2018-05-14T11:32:43.312Z,43.50
2018-05-14T11:35:10.830Z,42.70
2018-05-14T11:37:39.105Z,42.90
2018-05-14T11:40:06.637Z,42.90
2018-05-14T11:42:34.924Z,63.40
2018-05-14T11:45:02.468Z,63.30
2018-05-14T11:47:30.234Z,64.70
2018-05-14T11:49:57.764Z,72.30
2018-05-14T11:52:25.317Z,69.50
2018-05-14T11:54:52.869Z,70.80
2018-05-14T11:57:20.400Z,72.90
2018-05-14T11:59:47.914Z,74.40
2018-05-14T12:02:16.230Z,72.00
2018-05-14T12:04:43.737Z,71.80
2018-05-14T12:07:12.749Z,75.50
2018-05-14T12:09:40.316Z,75.50
2018-05-14T12:12:07.881Z,76.10
2018-05-14T12:14:35.369Z,74.00
2018-05-14T12:17:02.893Z,72.30
2018-05-14T12:19:30.414Z,72.90
2018-05-14T12:21:57.944Z,73.50
2018-05-14T12:24:26.246Z,77.70
2018-05-14T12:26:53.766Z,77.70
2018-05-14T12:29:21.296Z,77.20
2018-05-14T12:31:48.857Z,77.30
2018-05-14T12:34:16.385Z,77.30
2018-05-14T12:36:44.666Z,75.40
2018-05-14T12:39:12.963Z,72.50
2018-05-14T12:41:40.473Z,72.30
2018-05-14T12:44:07.986Z,73.30
2018-05-14T12:46:36.281Z,68.50
2018-05-14T12:49:04.097Z,68.40
2018-05-14T12:51:31.610Z,74.20
2018-05-14T12:53:59.160Z,73.30
2018-05-14T12:56:27.441Z,69.00
2018-05-14T12:58:55.714Z,67.90
2018-05-14T13:01:24.039Z,73.10
2018-05-14T13:03:51.537Z,73.00
2018-05-14T13:06:19.050Z,74.10
2018-05-14T13:08:46.593Z,74.80
2018-05-14T13:11:14.878Z,70.20
2018-05-14T13:13:43.167Z,69.40
2018-05-14T13:16:10.717Z,69.40
2018-05-14T13:18:38.997Z,66.70
2018-05-14T13:21:06.507Z,66.70
2018-05-14T13:23:34.041Z,68.00
2018-05-14T13:26:01.578Z,68.20
2018-05-14T13:28:29.097Z,67.40
2018-05-14T13:30:56.648Z,69.10
2018-05-14T13:33:24.176Z,69.40
2018-05-14T13:35:51.680Z,69.10
2018-05-14T13:38:19.236Z,64.00
2018-05-14T13:40:46.766Z,65.40
2018-05-14T13:43:15.055Z,64.40
2018-05-14T13:45:43.365Z,65.20
2018-05-14T13:48:10.890Z,65.10
2018-05-14T13:50:39.325Z,64.70
2018-05-14T13:53:06.872Z,64.40
2018-05-14T13:55:34.397Z,63.50
2018-05-14T13:58:01.919Z,65.70
2018-05-14T14:00:30.220Z,64.00
2018-05-14T14:02:57.733Z,64.00
2018-05-14T14:05:25.269Z,65.30
2018-05-14T14:07:52.805Z,62.50
2018-05-14T14:10:20.326Z,64.30
2018-05-14T14:12:48.748Z,67.40
2018-05-14T14:15:16.289Z,67.40
2018-05-14T14:17:43.802Z,69.50
2018-05-14T14:20:12.838Z,65.60
2018-05-14T14:22:41.154Z,65.90
2018-05-14T14:25:08.702Z,65.90
2018-05-14T14:27:36.257Z,63.90
2018-05-14T14:30:04.557Z,65.30
2018-05-14T14:32:32.071Z,65.20
2018-05-14T14:34:59.577Z,61.40
2018-05-14T14:37:27.101Z,59.30
2018-05-14T14:39:54.621Z,59.50
2018-05-14T14:42:22.130Z,60.00
2018-05-14T14:44:49.660Z,58.70
2018-05-14T14:47:17.163Z,59.30
2018-05-14T14:49:45.436Z,59.70
2018-05-14T14:52:13.203Z,59.80
2018-05-14T14:54:40.741Z,61.50
2018-05-14T14:57:08.277Z,62.50
2018-05-14T14:59:35.805Z,59.50
2018-05-14T15:02:04.081Z,59.00
2018-05-14T15:04:31.602Z,59.00
2018-05-14T15:06:59.224Z,58.50
2018-05-14T15:09:26.697Z,58.70
2018-05-14T15:11:54.213Z,57.80
2018-05-14T15:14:21.772Z,57.00
2018-05-14T15:16:49.290Z,54.50
2018-05-14T15:19:16.853Z,53.50
2018-05-14T15:21:44.379Z,49.40
2018-05-14T15:24:12.666Z,48.70
2018-05-14T15:26:41.690Z,48.60
2018-05-14T15:29:09.994Z,48.90
2018-05-14T15:31:37.506Z,48.90
2018-05-14T15:36:34.211Z,49.10
2018-05-14T15:39:01.731Z,50.00
2018-05-14T15:41:29.253Z,47.60
2018-05-14T15:43:56.824Z,50.40
2018-05-14T15:46:24.345Z,53.20
2018-05-14T15:48:52.626Z,47.60
2018-05-14T15:51:20.942Z,50.20
2018-05-14T15:53:48.531Z,50.10
2018-05-14T15:56:16.152Z,50.90
2018-05-14T15:58:43.651Z,51.80
2018-05-14T16:01:11.157Z,51.50
2018-05-14T16:03:38.665Z,51.80
2018-05-14T16:06:06.210Z,53.30
2018-05-14T16:08:34.514Z,53.00
2018-05-14T16:11:02.084Z,53.30
2018-05-14T16:13:29.637Z,51.20
2018-05-14T16:15:57.924Z,52.00
2018-05-14T16:18:25.446Z,52.00
2018-05-14T16:20:53.765Z,53.70
2018-05-14T16:23:21.333Z,53.50
2018-05-14T16:25:48.847Z,53.30
2018-05-14T16:28:17.195Z,54.00
2018-05-14T16:30:44.713Z,53.90
2018-05-14T16:33:13.077Z,54.40
2018-05-14T16:35:40.634Z,54.30
2018-05-14T16:38:08.146Z,54.30
2018-05-14T16:40:35.671Z,55.50
2018-05-14T16:43:03.239Z,55.80
2018-05-14T16:45:30.754Z,56.10
2018-05-14T16:47:58.271Z,56.40
2018-05-14T16:50:26.634Z,57.10
2018-05-14T16:52:54.152Z,57.00
2018-05-14T16:55:21.798Z,56.70
2018-05-14T16:57:50.175Z,56.60
2018-05-14T17:00:17.655Z,56.50
2018-05-14T17:02:45.184Z,55.50
2018-05-14T17:05:12.742Z,55.90
2018-05-14T17:07:40.265Z,56.10
2018-05-14T17:10:07.776Z,54.40
2018-05-14T17:12:36.107Z,54.40
2018-05-14T17:15:03.641Z,54.30
2018-05-14T17:17:31.933Z,55.20
2018-05-14T17:20:00.237Z,52.30
2018-05-14T17:22:27.745Z,52.20
2018-05-14T17:24:55.262Z,51.30
2018-05-14T17:27:22.838Z,49.50
2018-05-14T17:29:50.348Z,49.30
2018-05-14T17:32:17.866Z,50.00
2018-05-14T17:34:45.404Z,49.30
2018-05-14T17:37:12.924Z,48.70
2018-05-14T17:39:40.446Z,47.70
2018-05-14T17:42:08.006Z,49.00
2018-05-14T17:44:35.575Z,47.50
2018-05-14T17:47:03.125Z,49.70
2018-05-14T17:49:31.436Z,50.40
2018-05-14T17:51:58.960Z,50.30
2018-05-14T17:54:27.269Z,49.60
2018-05-14T17:56:54.899Z,49.50
2018-05-14T17:59:22.519Z,49.90
2018-05-14T18:01:50.029Z,49.50
2018-05-14T18:04:17.630Z,49.40
2018-05-14T18:06:45.181Z,50.20
2018-05-14T18:09:12.701Z,49.30
2018-05-14T18:11:40.230Z,49.20
2018-05-14T18:14:07.738Z,49.10
2018-05-14T18:16:35.261Z,48.80
2018-05-14T18:19:02.785Z,48.70
2018-05-14T18:21:37.942Z,49.20
2018-05-14T18:24:05.477Z,49.10
2018-05-14T18:26:39.402Z,49.60
2018-05-14T18:29:08.706Z,50.10
2018-05-14T18:31:42.667Z,50.10
2018-05-14T18:34:10.970Z,50.00
2018-05-14T18:36:38.478Z,49.90
2018-05-14T18:39:06.064Z,49.90
2018-05-14T18:41:33.553Z,49.60
2018-05-14T18:44:01.096Z,49.20
2018-05-14T18:46:28.661Z,49.50
2018-05-14T18:48:56.189Z,50.50
2018-05-14T18:51:24.471Z,50.40
2018-05-14T18:53:52.977Z,50.50
2018-05-14T18:56:20.520Z,50.50
2018-05-14T18:58:48.857Z,50.50
2018-05-14T19:01:16.361Z,50.50
2018-05-14T19:03:44.666Z,51.20
2018-05-14T19:06:12.178Z,51.10
2018-05-14T19:08:41.206Z,51.70
2018-05-14T19:11:15.338Z,52.00
2018-05-14T19:13:42.846Z,51.90
2018-05-14T19:16:27.209Z,51.90
2018-05-14T19:18:54.729Z,52.60
2018-05-14T19:21:22.245Z,52.30
2018-05-14T19:23:53.677Z,53.20
2018-05-14T19:26:21.184Z,53.30
2018-05-14T19:28:54.384Z,52.90
2018-05-14T19:31:21.901Z,52.10
2018-05-14T19:33:55.156Z,53.20
2018-05-14T19:36:22.687Z,52.90
2018-05-14T19:38:50.969Z,52.70
2018-05-14T19:41:19.282Z,52.50
2018-05-14T19:43:46.797Z,52.50
2018-05-14T19:46:14.322Z,52.80
2018-05-14T19:48:41.866Z,52.20
2018-05-14T19:51:09.386Z,52.50
2018-05-14T19:53:38.502Z,52.90
2018-05-14T19:56:06.810Z,53.50
2018-05-14T19:58:34.335Z,53.30
2018-05-14T20:01:02.109Z,54.00
2018-05-14T20:03:29.681Z,53.30
2018-05-14T20:05:57.211Z,53.70
2018-05-14T20:08:24.751Z,54.20
2018-05-14T20:10:52.298Z,54.20
2018-05-14T20:13:19.853Z,54.10
2018-05-14T20:15:48.132Z,54.40
2018-05-14T20:18:16.507Z,54.40
2018-05-14T20:20:44.820Z,54.40
2018-05-14T20:23:12.357Z,54.30
2018-05-14T20:25:40.721Z,54.90
2018-05-14T20:28:09.010Z,56.00
2018-05-14T20:30:37.298Z,55.90
2018-05-14T20:33:05.599Z,56.40
2018-05-14T20:35:33.130Z,56.30
2018-05-14T20:38:00.649Z,56.40
2018-05-14T20:43:02.049Z,56.70
2018-05-14T20:45:29.572Z,56.80
2018-05-14T20:47:57.098Z,56.90
2018-05-14T20:50:24.692Z,56.80
2018-05-14T20:52:52.206Z,57.50
2018-05-14T20:55:19.726Z,56.60
2018-05-14T20:57:47.303Z,56.60
2018-05-14T21:00:14.839Z,56.50
2018-05-14T21:02:43.314Z,56.40
2018-05-14T21:05:11.623Z,56.30
2018-05-14T21:07:39.146Z,56.20
2018-05-14T21:10:06.665Z,56.20
2018-05-14T21:12:34.217Z,56.40
2018-05-14T21:15:01.729Z,57.10
2018-05-14T21:17:30.069Z,55.80
2018-05-14T21:19:57.619Z,55.70
2018-05-14T21:22:25.277Z,56.10
2018-05-14T21:24:53.553Z,55.90
2018-05-14T21:27:21.969Z,55.60
2018-05-14T21:29:49.523Z,55.50
2018-05-14T21:32:17.093Z,55.50
2018-05-14T21:34:44.655Z,54.80
2018-05-14T21:37:12.225Z,54.50
2018-05-14T21:39:39.735Z,54.40
2018-05-14T21:42:07.272Z,54.00
2018-05-14T21:44:34.813Z,54.20
2018-05-14T21:47:02.354Z,52.70
2018-05-14T21:49:33.023Z,52.60
2018-05-14T21:52:00.526Z,52.80
2018-05-14T21:54:28.818Z,51.90
2018-05-14T21:56:56.396Z,51.90
2018-05-14T21:59:24.668Z,50.30
2018-05-14T22:01:52.990Z,49.80
2018-05-14T22:04:21.448Z,49.80
2018-05-14T22:06:56.193Z,49.00
2018-05-14T22:09:23.777Z,48.90
2018-05-14T22:11:51.292Z,48.70
2018-05-14T22:14:18.833Z,48.20
2018-05-14T22:16:46.362Z,48.00
2018-05-14T22:19:13.878Z,47.30
2018-05-14T22:21:42.161Z,47.60
2018-05-14T22:24:10.463Z,48.60
2018-05-14T22:26:38.745Z,48.80
2018-05-14T22:29:07.050Z,49.20
2018-05-14T22:31:34.576Z,49.20
2018-05-14T22:34:02.888Z,50.20
2018-05-14T22:36:30.410Z,50.70
2018-05-14T22:38:57.969Z,50.20
2018-05-14T22:41:26.990Z,51.50
2018-05-14T22:43:55.265Z,51.50
2018-05-14T22:46:23.583Z,51.80
2018-05-14T22:48:51.098Z,51.70
2018-05-14T22:51:18.604Z,52.00
2018-05-14T22:53:46.144Z,52.70
2018-05-14T22:56:14.430Z,54.40
2018-05-14T22:58:42.709Z,55.00
2018-05-14T23:01:11.005Z,55.30
2018-05-14T23:03:39.295Z,55.40
2018-05-14T23:06:06.942Z,55.30
2018-05-14T23:08:35.254Z,56.70
2018-05-14T23:11:02.762Z,56.70
2018-05-14T23:13:30.272Z,57.30
2018-05-14T23:15:57.831Z,57.30
2018-05-14T23:18:25.367Z,58.00
2018-05-14T23:20:52.885Z,58.10
2018-05-14T23:23:20.414Z,58.10
2018-05-14T23:25:48.710Z,58.30
2018-05-14T23:28:16.217Z,58.30
2018-05-14T23:30:43.741Z,58.50
2018-05-14T23:33:11.254Z,59.30
2018-05-14T23:35:39.537Z,60.40
2018-05-14T23:38:08.569Z,60.70
2018-05-14T23:40:36.841Z,61.00
2018-05-14T23:43:05.122Z,61.20
2018-05-14T23:45:33.430Z,61.50
2018-05-14T23:48:00.988Z,61.40
2018-05-14T23:50:29.421Z,61.90
2018-05-14T23:52:58.473Z,62.10
2018-05-14T23:55:25.990Z,62.10
2018-05-14T23:57:53.513Z,62.10
